sensor_id;sensor_type;location;lat;lon;timestamp;pressure;altitude;pressure_sealevel;temperature;humidity
76374;BME280;65197;50.164;8.012;2022-12-07T00:01:33;95574.56;;;-0.65;100.00
76374;BME280;65197;50.164;8.012;2022-12-07T00:04:00;95574.56;;;-0.65;100.00
76374;BME280;65197;50.164;8.012;2022-12-07T00:06:30;95566.25;;;-0.64;100.00
76374;BME280;65197;50.164;8.012;2022-12-07T00:08:57;95576.25;;;-0.64;100.00
76374;BME280;65197;50.164;8.012;2022-12-07T00:11:22;95571.25;;;-0.67;100.00
76374;BME280;65197;50.164;8.012;2022-12-07T00:13:53;95559.56;;;-0.68;100.00
76374;BME280;65197;50.164;8.012;2022-12-07T00:16:21;95553.75;;;-0.73;100.00
76374;BME280;65197;50.164;8.012;2022-12-07T00:18:47;95558.75;;;-0.73;100.00
76374;BME280;65197;50.164;8.012;2022-12-07T00:21:18;95557.06;;;-0.71;100.00
76374;BME280;65197;50.164;8.012;2022-12-07T00:23:44;95547.06;;;-0.72;100.00
76374;BME280;65197;50.164;8.012;2022-12-07T00:26:13;95547.91;;;-0.72;100.00
76374;BME280;65197;50.164;8.012;2022-12-07T00:28:39;95541.25;;;-0.73;100.00
76374;BME280;65197;50.164;8.012;2022-12-07T00:31:08;95542.06;;;-0.75;100.00
76374;BME280;65197;50.164;8.012;2022-12-07T00:33:34;95542.91;;;-0.72;100.00
76374;BME280;65197;50.164;8.012;2022-12-07T00:36:00;95547.06;;;-0.72;100.00
76374;BME280;65197;50.164;8.012;2022-12-07T00:38:31;95550.38;;;-0.67;100.00
76374;BME280;65197;50.164;8.012;2022-12-07T00:40:58;95536.19;;;-0.67;100.00
76374;BME280;65197;50.164;8.012;2022-12-07T00:43:24;95539.53;;;-0.71;100.00
76374;BME280;65197;50.164;8.012;2022-12-07T00:45:49;95544.56;;;-0.71;100.00
76374;BME280;65197;50.164;8.012;2022-12-07T00:48:15;95536.19;;;-0.70;100.00
76374;BME280;65197;50.164;8.012;2022-12-07T00:50:40;95538.69;;;-0.65;100.00
76374;BME280;65197;50.164;8.012;2022-12-07T00:53:06;95536.19;;;-0.67;100.00
76374;BME280;65197;50.164;8.012;2022-12-07T00:55:34;95526.19;;;-0.70;100.00
76374;BME280;65197;50.164;8.012;2022-12-07T00:58:00;95524.53;;;-0.74;100.00
76374;BME280;65197;50.164;8.012;2022-12-07T01:00:26;95522.84;;;-0.67;100.00
76374;BME280;65197;50.164;8.012;2022-12-07T01:02:52;95529.53;;;-0.68;100.00
76374;BME280;65197;50.164;8.012;2022-12-07T01:05:18;95519.50;;;-0.68;100.00
76374;BME280;65197;50.164;8.012;2022-12-07T01:07:43;95522.84;;;-0.69;100.00
76374;BME280;65197;50.164;8.012;2022-12-07T01:13:24;95528.69;;;-0.68;100.00
76374;BME280;65197;50.164;8.012;2022-12-07T01:15:49;95524.53;;;-0.74;100.00
76374;BME280;65197;50.164;8.012;2022-12-07T01:18:15;95520.34;;;-0.70;100.00
76374;BME280;65197;50.164;8.012;2022-12-07T01:20:40;95526.19;;;-0.70;100.00
76374;BME280;65197;50.164;8.012;2022-12-07T01:23:06;95528.69;;;-0.67;100.00
76374;BME280;65197;50.164;8.012;2022-12-07T01:25:32;95527.88;;;-0.69;100.00
76374;BME280;65197;50.164;8.012;2022-12-07T01:27:57;95523.69;;;-0.70;100.00
76374;BME280;65197;50.164;8.012;2022-12-07T01:30:22;95530.34;;;-0.64;100.00
76374;BME280;65197;50.164;8.012;2022-12-07T01:32:48;95529.50;;;-0.65;100.00
76374;BME280;65197;50.164;8.012;2022-12-07T01:35:13;95529.50;;;-0.65;100.00
76374;BME280;65197;50.164;8.012;2022-12-07T01:37:39;95529.50;;;-0.65;100.00
76374;BME280;65197;50.164;8.012;2022-12-07T01:40:06;95530.34;;;-0.63;100.00
76374;BME280;65197;50.164;8.012;2022-12-07T01:42:33;95527.00;;;-0.63;100.00
76374;BME280;65197;50.164;8.012;2022-12-07T01:45:34;95529.47;;;-0.60;100.00
76374;BME280;65197;50.164;8.012;2022-12-07T01:48:01;95525.34;;;-0.64;100.00
76374;BME280;65197;50.164;8.012;2022-12-07T01:50:28;95526.13;;;-0.61;100.00
76374;BME280;65197;50.164;8.012;2022-12-07T01:52:59;95513.63;;;-0.61;100.00
76374;BME280;65197;50.164;8.012;2022-12-07T01:55:27;95516.16;;;-0.67;100.00
76374;BME280;65197;50.164;8.012;2022-12-07T01:57:54;95517.81;;;-0.66;100.00
76374;BME280;65197;50.164;8.012;2022-12-07T02:00:20;95515.31;;;-0.63;100.00
76374;BME280;65197;50.164;8.012;2022-12-07T02:02:53;95509.44;;;-0.62;100.00
76374;BME280;65197;50.164;8.012;2022-12-07T02:05:21;95508.63;;;-0.59;100.00
76374;BME280;65197;50.164;8.012;2022-12-07T02:07:48;95509.44;;;-0.65;100.00
76374;BME280;65197;50.164;8.012;2022-12-07T02:10:15;95511.16;;;-0.64;100.00
76374;BME280;65197;50.164;8.012;2022-12-07T02:12:40;95506.94;;;-0.62;100.00
76374;BME280;65197;50.164;8.012;2022-12-07T02:15:07;95501.13;;;-0.64;100.00
76374;BME280;65197;50.164;8.012;2022-12-07T02:17:52;95503.69;;;-0.73;100.00
76374;BME280;65197;50.164;8.012;2022-12-07T02:20:26;95508.66;;;-0.68;100.00
76374;BME280;65197;50.164;8.012;2022-12-07T02:28:51;95500.28;;;-0.63;100.00
76374;BME280;65197;50.164;8.012;2022-12-07T02:31:20;95499.44;;;-0.63;100.00
76374;BME280;65197;50.164;8.012;2022-12-07T02:33:51;95496.13;;;-0.64;100.00
76374;BME280;65197;50.164;8.012;2022-12-07T02:36:30;95497.78;;;-0.63;100.00
76374;BME280;65197;50.164;8.012;2022-12-07T02:41:34;95492.75;;;-0.58;100.00
76374;BME280;65197;50.164;8.012;2022-12-07T02:44:07;95494.41;;;-0.59;100.00
76374;BME280;65197;50.164;8.012;2022-12-07T02:46:41;95498.59;;;-0.59;100.00
76374;BME280;65197;50.164;8.012;2022-12-07T02:49:07;95496.06;;;-0.58;100.00
76374;BME280;65197;50.164;8.012;2022-12-07T02:51:39;95498.56;;;-0.53;100.00
76374;BME280;65197;50.164;8.012;2022-12-07T02:54:13;95487.72;;;-0.55;100.00
76374;BME280;65197;50.164;8.012;2022-12-07T02:56:48;95487.72;;;-0.57;100.00
76374;BME280;65197;50.164;8.012;2022-12-07T03:05:00;95489.34;;;-0.49;100.00
76374;BME280;65197;50.164;8.012;2022-12-07T03:07:37;95495.19;;;-0.49;100.00
76374;BME280;65197;50.164;8.012;2022-12-07T03:10:25;95492.66;;;-0.47;100.00
76374;BME280;65197;50.164;8.012;2022-12-07T03:15:47;95487.66;;;-0.44;100.00
76374;BME280;65197;50.164;8.012;2022-12-07T03:18:16;95486.81;;;-0.43;100.00
76374;BME280;65197;50.164;8.012;2022-12-07T03:20:44;95481.81;;;-0.46;100.00
76374;BME280;65197;50.164;8.012;2022-12-07T03:23:12;95483.50;;;-0.45;100.00
76374;BME280;65197;50.164;8.012;2022-12-07T03:25:41;95477.63;;;-0.41;100.00
76374;BME280;65197;50.164;8.012;2022-12-07T03:28:10;95480.09;;;-0.40;100.00
76374;BME280;65197;50.164;8.012;2022-12-07T03:33:13;95479.25;;;-0.37;100.00
76374;BME280;65197;50.164;8.012;2022-12-07T03:35:45;95470.91;;;-0.39;100.00
76374;BME280;65197;50.164;8.012;2022-12-07T03:38:26;95477.63;;;-0.41;100.00
76374;BME280;65197;50.164;8.012;2022-12-07T03:41:04;95470.91;;;-0.39;100.00
76374;BME280;65197;50.164;8.012;2022-12-07T03:43:31;95474.22;;;-0.34;100.00
76374;BME280;65197;50.164;8.012;2022-12-07T03:49:10;95473.41;;;-0.36;100.00
76374;BME280;65197;50.164;8.012;2022-12-07T03:51:56;95467.56;;;-0.35;100.00
76374;BME280;65197;50.164;8.012;2022-12-07T03:54:30;95465.88;;;-0.32;100.00
76374;BME280;65197;50.164;8.012;2022-12-07T03:56:57;95465.84;;;-0.30;100.00
76374;BME280;65197;50.164;8.012;2022-12-07T03:59:23;95461.66;;;-0.33;100.00
76374;BME280;65197;50.164;8.012;2022-12-07T04:01:59;95460.84;;;-0.30;100.00
76374;BME280;65197;50.164;8.012;2022-12-07T04:04:26;95462.47;;;-0.29;100.00
76374;BME280;65197;50.164;8.012;2022-12-07T04:06:51;95464.16;;;-0.28;100.00
76374;BME280;65197;50.164;8.012;2022-12-07T04:09:17;95458.31;;;-0.29;100.00
76374;BME280;65197;50.164;8.012;2022-12-07T04:11:43;95461.66;;;-0.27;100.00
76374;BME280;65197;50.164;8.012;2022-12-07T04:14:09;95469.16;;;-0.28;100.00
76374;BME280;65197;50.164;8.012;2022-12-07T04:16:53;95457.47;;;-0.29;100.00
76374;BME280;65197;50.164;8.012;2022-12-07T04:19:23;95469.13;;;-0.25;100.00
76374;BME280;65197;50.164;8.012;2022-12-07T04:21:49;95459.13;;;-0.28;100.00
76374;BME280;65197;50.164;8.012;2022-12-07T04:24:15;95456.63;;;-0.25;100.00
76374;BME280;65197;50.164;8.012;2022-12-07T04:26:42;95463.28;;;-0.22;100.00
76374;BME280;65197;50.164;8.012;2022-12-07T04:29:08;95454.09;;;-0.23;100.00
76374;BME280;65197;50.164;8.012;2022-12-07T04:31:34;95460.81;;;-0.27;100.00
76374;BME280;65197;50.164;8.012;2022-12-07T04:33:59;95455.81;;;-0.27;100.00
76374;BME280;65197;50.164;8.012;2022-12-07T04:36:25;95455.75;;;-0.24;100.00
76374;BME280;65197;50.164;8.012;2022-12-07T04:38:53;95453.28;;;-0.26;100.00
76374;BME280;65197;50.164;8.012;2022-12-07T04:41:19;95460.75;;;-0.21;100.00
76374;BME280;65197;50.164;8.012;2022-12-07T04:43:44;95464.97;;;-0.24;100.00
76374;BME280;65197;50.164;8.012;2022-12-07T04:46:09;95461.59;;;-0.20;100.00
76374;BME280;65197;50.164;8.012;2022-12-07T04:48:35;95465.78;;;-0.21;100.00
76374;BME280;65197;50.164;8.012;2022-12-07T04:51:02;95468.25;;;-0.19;100.00
76374;BME280;65197;50.164;8.012;2022-12-07T04:53:28;95459.09;;;-0.22;100.00
76374;BME280;65197;50.164;8.012;2022-12-07T04:55:53;95459.09;;;-0.22;100.00
76374;BME280;65197;50.164;8.012;2022-12-07T04:58:19;95459.94;;;-0.21;100.00
76374;BME280;65197;50.164;8.012;2022-12-07T05:00:44;95458.28;;;-0.24;100.00
76374;BME280;65197;50.164;8.012;2022-12-07T05:03:10;95457.44;;;-0.23;100.00
76374;BME280;65197;50.164;8.012;2022-12-07T05:05:35;95454.97;;;-0.26;100.00
76374;BME280;65197;50.164;8.012;2022-12-07T05:08:00;95459.13;;;-0.25;100.00
76374;BME280;65197;50.164;8.012;2022-12-07T05:10:26;95454.09;;;-0.25;100.00
76374;BME280;65197;50.164;8.012;2022-12-07T05:12:51;95463.28;;;-0.24;100.00
76374;BME280;65197;50.164;8.012;2022-12-07T05:15:17;95459.09;;;-0.22;100.00
76374;BME280;65197;50.164;8.012;2022-12-07T05:17:42;95457.44;;;-0.23;100.00
76374;BME280;65197;50.164;8.012;2022-12-07T05:20:08;95460.75;;;-0.21;100.00
76374;BME280;65197;50.164;8.012;2022-12-07T05:22:34;95459.91;;;-0.18;100.00
76374;BME280;65197;50.164;8.012;2022-12-07T05:24:59;95458.22;;;-0.19;100.00
76374;BME280;65197;50.164;8.012;2022-12-07T05:27:25;95465.75;;;-0.18;100.00
76374;BME280;65197;50.164;8.012;2022-12-07T05:29:50;95467.44;;;-0.20;100.00
76374;BME280;65197;50.164;8.012;2022-12-07T05:32:16;95464.13;;;-0.22;100.00
76374;BME280;65197;50.164;8.012;2022-12-07T05:34:42;95464.06;;;-0.19;100.00
76374;BME280;65197;50.164;8.012;2022-12-07T05:37:07;95468.28;;;-0.21;100.00
76374;BME280;65197;50.164;8.012;2022-12-07T05:39:33;95464.13;;;-0.22;100.00
76374;BME280;65197;50.164;8.012;2022-12-07T05:41:58;95470.81;;;-0.24;100.00
76374;BME280;65197;50.164;8.012;2022-12-07T05:44:43;95460.78;;;-0.24;100.00
76374;BME280;65197;50.164;8.012;2022-12-07T05:47:09;95469.13;;;-0.25;100.00
76374;BME280;65197;50.164;8.012;2022-12-07T05:49:34;95464.94;;;-0.20;100.00
76374;BME280;65197;50.164;8.012;2022-12-07T05:52:00;95467.44;;;-0.20;100.00
76374;BME280;65197;50.164;8.012;2022-12-07T05:54:25;95469.09;;;-0.19;100.00
76374;BME280;65197;50.164;8.012;2022-12-07T05:56:51;95467.44;;;-0.18;100.00
76374;BME280;65197;50.164;8.012;2022-12-07T05:59:17;95470.72;;;-0.15;100.00
76374;BME280;65197;50.164;8.012;2022-12-07T06:01:57;95463.28;;;-0.22;100.00
76374;BME280;65197;50.164;8.012;2022-12-07T06:04:24;95470.78;;;-0.18;100.00
76374;BME280;65197;50.164;8.012;2022-12-07T06:06:49;95473.28;;;-0.19;100.00
76374;BME280;65197;50.164;8.012;2022-12-07T06:09:15;95467.47;;;-0.23;100.00
76374;BME280;65197;50.164;8.012;2022-12-07T06:11:41;95464.97;;;-0.23;100.00
76374;BME280;65197;50.164;8.012;2022-12-07T06:14:25;95464.13;;;-0.22;100.00
76374;BME280;65197;50.164;8.012;2022-12-07T06:16:51;95465.78;;;-0.21;100.00
76374;BME280;65197;50.164;8.012;2022-12-07T06:19:16;95461.66;;;-0.27;100.00
76374;BME280;65197;50.164;8.012;2022-12-07T06:21:42;95461.59;;;-0.23;100.00
76374;BME280;65197;50.164;8.012;2022-12-07T06:24:11;95460.78;;;-0.24;100.00
76374;BME280;65197;50.164;8.012;2022-12-07T06:26:36;95459.09;;;-0.22;100.00
76374;BME280;65197;50.164;8.012;2022-12-07T06:29:01;95469.94;;;-0.18;100.00
76374;BME280;65197;50.164;8.012;2022-12-07T06:31:27;95470.78;;;-0.18;100.00
76374;BME280;65197;50.164;8.012;2022-12-07T06:33:57;95465.78;;;-0.21;100.00
76374;BME280;65197;50.164;8.012;2022-12-07T06:36:23;95466.59;;;-0.17;100.00
76374;BME280;65197;50.164;8.012;2022-12-07T06:38:48;95466.59;;;-0.20;100.00
76374;BME280;65197;50.164;8.012;2022-12-07T06:41:14;95469.94;;;-0.20;100.00
76374;BME280;65197;50.164;8.012;2022-12-07T06:43:39;95464.94;;;-0.20;100.00
76374;BME280;65197;50.164;8.012;2022-12-07T06:46:05;95469.94;;;-0.18;100.00
76374;BME280;65197;50.164;8.012;2022-12-07T06:48:30;95473.25;;;-0.16;100.00
76374;BME280;65197;50.164;8.012;2022-12-07T06:50:55;95474.06;;;-0.13;100.00
76374;BME280;65197;50.164;8.012;2022-12-07T06:53:21;95477.38;;;-0.11;100.00
76374;BME280;65197;50.164;8.012;2022-12-07T06:55:47;95475.75;;;-0.15;100.00
76374;BME280;65197;50.164;8.012;2022-12-07T06:58:12;95474.03;;;-0.10;100.00
76374;BME280;65197;50.164;8.012;2022-12-07T07:00:37;95480.72;;;-0.09;100.00
76374;BME280;65197;50.164;8.012;2022-12-07T07:03:03;95475.72;;;-0.09;100.00
76374;BME280;65197;50.164;8.012;2022-12-07T07:05:28;95469.03;;;-0.08;100.00
76374;BME280;65197;50.164;8.012;2022-12-07T07:07:54;95473.19;;;-0.10;100.00
76374;BME280;65197;50.164;8.012;2022-12-07T07:10:19;95474.00;;;-0.07;100.00
76374;BME280;65197;50.164;8.012;2022-12-07T07:12:44;95477.41;;;-0.09;100.00
76374;BME280;65197;50.164;8.012;2022-12-07T07:15:10;95480.72;;;-0.09;100.00
76374;BME280;65197;50.164;8.012;2022-12-07T07:17:36;95494.06;;;-0.04;100.00
76374;BME280;65197;50.164;8.012;2022-12-07T07:20:02;95498.28;;;-0.09;100.00
76374;BME280;65197;50.164;8.012;2022-12-07T07:22:27;95492.44;;;-0.09;100.00
76374;BME280;65197;50.164;8.012;2022-12-07T07:24:53;95490.78;;;-0.12;100.00
76374;BME280;65197;50.164;8.012;2022-12-07T07:27:18;95494.13;;;-0.13;100.00
76374;BME280;65197;50.164;8.012;2022-12-07T07:29:43;95490.78;;;-0.15;100.00
76374;BME280;65197;50.164;8.012;2022-12-07T07:32:09;95489.06;;;-0.10;100.00
76374;BME280;65197;50.164;8.012;2022-12-07T07:34:34;95489.06;;;-0.08;100.00
76374;BME280;65197;50.164;8.012;2022-12-07T07:37:00;95499.09;;;-0.07;100.00
76374;BME280;65197;50.164;8.012;2022-12-07T07:39:25;95497.44;;;-0.08;100.00
76374;BME280;65197;50.164;8.012;2022-12-07T07:41:51;95504.09;;;-0.04;100.00
76374;BME280;65197;50.164;8.012;2022-12-07T07:44:16;95499.91;;;-0.05;100.00
76374;BME280;65197;50.164;8.012;2022-12-07T07:46:41;95499.03;;;-0.02;100.00
76374;BME280;65197;50.164;8.012;2022-12-07T07:49:09;95505.75;;;-0.03;100.00
76374;BME280;65197;50.164;8.012;2022-12-07T07:51:35;95504.13;;;-0.08;100.00
76374;BME280;65197;50.164;8.012;2022-12-07T07:54:01;95500.78;;;-0.09;100.00
76374;BME280;65197;50.164;8.012;2022-12-07T07:56:26;95509.09;;;-0.07;100.00
76374;BME280;65197;50.164;8.012;2022-12-07T07:58:53;95499.09;;;-0.07;100.00
76374;BME280;65197;50.164;8.012;2022-12-07T08:01:19;95500.72;;;-0.06;100.00
76374;BME280;65197;50.164;8.012;2022-12-07T08:03:47;95494.91;;;-0.06;100.00
76374;BME280;65197;50.164;8.012;2022-12-07T08:06:12;95489.84;;;-0.02;100.00
76374;BME280;65197;50.164;8.012;2022-12-07T08:08:38;95494.88;;;0.00;100.00
76374;BME280;65197;50.164;8.012;2022-12-07T08:11:08;95493.16;;;0.04;100.00
76374;BME280;65197;50.164;8.012;2022-12-07T08:13:33;95500.59;;;0.13;100.00
76374;BME280;65197;50.164;8.012;2022-12-07T08:16:03;95508.81;;;0.27;100.00
76374;BME280;65197;50.164;8.012;2022-12-07T08:18:29;95498.78;;;0.27;100.00
76374;BME280;65197;50.164;8.012;2022-12-07T08:21:00;95503.88;;;0.21;100.00
76374;BME280;65197;50.164;8.012;2022-12-07T08:23:26;95474.03;;;-0.08;100.00
76374;BME280;65197;50.164;8.012;2022-12-07T08:25:52;95488.31;;;-0.21;100.00
76374;BME280;65197;50.164;8.012;2022-12-07T08:28:17;95505.88;;;-0.21;100.00
76374;BME280;65197;50.164;8.012;2022-12-07T08:30:43;95485.94;;;-0.39;100.00
76374;BME280;65197;50.164;8.012;2022-12-07T08:33:09;95480.94;;;-0.42;100.00
76374;BME280;65197;50.164;8.012;2022-12-07T08:35:34;95480.94;;;-0.42;100.00
76374;BME280;65197;50.164;8.012;2022-12-07T08:38:00;95507.56;;;-0.23;100.00
76374;BME280;65197;50.164;8.012;2022-12-07T08:40:27;95509.19;;;-0.19;100.00
76374;BME280;65197;50.164;8.012;2022-12-07T08:42:52;95503.34;;;-0.19;100.00
76374;BME280;65197;50.164;8.012;2022-12-07T08:45:19;95501.66;;;-0.17;100.00
76374;BME280;65197;50.164;8.012;2022-12-07T08:48:08;95493.28;;;-0.15;100.00
76374;BME280;65197;50.164;8.012;2022-12-07T08:50:36;95509.88;;;0.02;100.00
76374;BME280;65197;50.164;8.012;2022-12-07T08:53:06;95484.03;;;-0.04;100.00
76374;BME280;65197;50.164;8.012;2022-12-07T08:55:33;95469.06;;;-0.13;100.00
76374;BME280;65197;50.164;8.012;2022-12-07T08:57:59;95470.59;;;0.04;100.00
76374;BME280;65197;50.164;8.012;2022-12-07T09:00:25;95489.72;;;0.15;100.00
76374;BME280;65197;50.164;8.012;2022-12-07T09:02:51;95505.53;;;0.22;100.00
76374;BME280;65197;50.164;8.012;2022-12-07T09:05:16;95483.09;;;0.10;100.00
76374;BME280;65197;50.164;8.012;2022-12-07T09:07:44;95499.69;;;0.21;100.00
76374;BME280;65197;50.164;8.012;2022-12-07T09:10:11;95501.38;;;0.18;100.00
76374;BME280;65197;50.164;8.012;2022-12-07T09:12:37;95498.13;;;0.08;100.00
76374;BME280;65197;50.164;8.012;2022-12-07T09:15:08;95500.72;;;0.01;100.00
76374;BME280;65197;50.164;8.012;2022-12-07T09:17:34;95477.38;;;-0.11;100.00
76374;BME280;65197;50.164;8.012;2022-12-07T09:20:01;95522.31;;;0.14;100.00
76374;BME280;65197;50.164;8.012;2022-12-07T09:22:30;95514.81;;;0.12;100.00
76374;BME280;65197;50.164;8.012;2022-12-07T09:24:58;95507.34;;;0.05;100.00
76374;BME280;65197;50.164;8.012;2022-12-07T09:27:24;95507.34;;;0.05;100.00
76374;BME280;65197;50.164;8.012;2022-12-07T09:29:50;95527.31;;;0.14;100.00
76374;BME280;65197;50.164;8.012;2022-12-07T09:32:15;95508.13;;;0.11;100.00
76374;BME280;65197;50.164;8.012;2022-12-07T09:34:41;95535.63;;;0.22;100.00
76374;BME280;65197;50.164;8.012;2022-12-07T09:37:06;95521.47;;;0.16;100.00
76374;BME280;65197;50.164;8.012;2022-12-07T09:39:32;95502.22;;;0.17;100.00
76374;BME280;65197;50.164;8.012;2022-12-07T09:41:58;95517.13;;;0.35;100.00
76374;BME280;65197;50.164;8.012;2022-12-07T09:44:27;95528.81;;;0.36;100.00
76374;BME280;65197;50.164;8.012;2022-12-07T09:46:54;95518.78;;;0.36;100.00
76374;BME280;65197;50.164;8.012;2022-12-07T09:49:22;95517.03;;;0.44;99.79
76374;BME280;65197;50.164;8.012;2022-12-07T09:52:22;95521.16;;;0.50;100.00
76374;BME280;65197;50.164;8.012;2022-12-07T09:54:48;95507.00;;;0.44;99.78
76374;BME280;65197;50.164;8.012;2022-12-07T09:57:14;95482.69;;;0.53;99.86
76374;BME280;65197;50.164;8.012;2022-12-07T09:59:39;95503.44;;;0.67;98.96
76374;BME280;65197;50.164;8.012;2022-12-07T10:02:37;95479.34;;;0.50;99.14
76374;BME280;65197;50.164;8.012;2022-12-07T10:05:10;95505.09;;;0.71;98.53
76374;BME280;65197;50.164;8.012;2022-12-07T10:07:37;95496.72;;;0.69;98.98
76374;BME280;65197;50.164;8.012;2022-12-07T10:10:05;95463.41;;;0.58;98.99
76374;BME280;65197;50.164;8.012;2022-12-07T10:12:55;95486.47;;;0.87;97.97
76374;BME280;65197;50.164;8.012;2022-12-07T10:15:21;95483.91;;;0.95;97.83
76374;BME280;65197;50.164;8.012;2022-12-07T10:17:51;95483.19;;;0.82;98.06
76374;BME280;65197;50.164;8.012;2022-12-07T10:20:20;95475.00;;;0.66;98.20
76374;BME280;65197;50.164;8.012;2022-12-07T10:23:16;95474.16;;;0.67;98.11
76374;BME280;65197;50.164;8.012;2022-12-07T10:25:42;95469.78;;;0.83;98.55
76374;BME280;65197;50.164;8.012;2022-12-07T10:30:59;95444.75;;;0.80;98.19
76374;BME280;65197;50.164;8.012;2022-12-07T10:33:32;95474.56;;;1.05;97.87
76374;BME280;65197;50.164;8.012;2022-12-07T10:35:58;95466.25;;;0.99;97.30
76374;BME280;65197;50.164;8.012;2022-12-07T10:38:25;95439.88;;;1.33;96.63
76374;BME280;65197;50.164;8.012;2022-12-07T10:41:03;95463.09;;;1.50;95.97
76374;BME280;65197;50.164;8.012;2022-12-07T10:43:29;95450.88;;;1.24;95.82
76374;BME280;65197;50.164;8.012;2022-12-07T10:49:53;95470.13;;;1.23;95.64
76374;BME280;65197;50.164;8.012;2022-12-07T10:52:05;95456.25;;;0.96;96.04
76374;BME280;65197;50.164;8.012;2022-12-07T10:59:55;95464.03;;;0.76;97.21
76374;BME280;65197;50.164;8.012;2022-12-07T11:02:54;95461.63;;;0.66;98.19
76374;BME280;65197;50.164;8.012;2022-12-07T11:14:08;95456.09;;;0.35;98.41
76374;BME280;65197;50.164;8.012;2022-12-07T11:16:45;95459.38;;;0.40;99.24
76374;BME280;65197;50.164;8.012;2022-12-07T11:19:24;95428.66;;;0.21;99.13
76374;BME280;65197;50.164;8.012;2022-12-07T11:22:17;95446.97;;;0.29;99.15
76374;BME280;65197;50.164;8.012;2022-12-07T11:25:01;95435.22;;;0.31;98.75
76374;BME280;65197;50.164;8.012;2022-12-07T11:30:10;95420.22;;;0.28;99.48
76374;BME280;65197;50.164;8.012;2022-12-07T11:32:45;95451.72;;;0.54;98.83
76374;BME280;65197;50.164;8.012;2022-12-07T11:35:30;95415.78;;;0.50;99.58
76374;BME280;65197;50.164;8.012;2022-12-07T11:38:01;95441.47;;;0.72;99.77
76374;BME280;65197;50.164;8.012;2022-12-07T11:40:34;95394.13;;;0.44;99.10
76374;BME280;65197;50.164;8.012;2022-12-07T11:43:27;95413.28;;;0.52;99.33
76374;BME280;65197;50.164;8.012;2022-12-07T11:46:06;95420.69;;;0.62;99.20
76374;BME280;65197;50.164;8.012;2022-12-07T11:51:39;95403.19;;;0.55;97.44
76374;BME280;65197;50.164;8.012;2022-12-07T11:54:23;95423.13;;;0.68;97.62
76374;BME280;65197;50.164;8.012;2022-12-07T11:56:50;95423.06;;;0.73;97.98
76374;BME280;65197;50.164;8.012;2022-12-07T11:59:23;95421.28;;;0.81;98.38
76374;BME280;65197;50.164;8.012;2022-12-07T12:01:58;95406.28;;;0.78;97.57
76374;BME280;65197;50.164;8.012;2022-12-07T12:04:35;95406.28;;;0.78;98.21
76374;BME280;65197;50.164;8.012;2022-12-07T12:07:11;95409.59;;;0.80;98.41
76374;BME280;65197;50.164;8.012;2022-12-07T12:09:54;95410.41;;;0.84;98.45
76374;BME280;65197;50.164;8.012;2022-12-07T12:15:18;95400.41;;;0.81;97.98
76374;BME280;65197;50.164;8.012;2022-12-07T12:18:00;95397.81;;;0.85;98.00
76374;BME280;65197;50.164;8.012;2022-12-07T12:20:54;95398.69;;;0.83;98.41
76374;BME280;65197;50.164;8.012;2022-12-07T12:23:22;95402.88;;;0.82;98.51
76374;BME280;65197;50.164;8.012;2022-12-07T12:25:57;95402.88;;;0.82;98.18
76374;BME280;65197;50.164;8.012;2022-12-07T12:28:54;95397.78;;;0.88;98.04
76374;BME280;65197;50.164;8.012;2022-12-07T12:33:52;95398.66;;;0.86;98.16
76374;BME280;65197;50.164;8.012;2022-12-07T12:36:26;95391.16;;;0.84;98.45
76374;BME280;65197;50.164;8.012;2022-12-07T12:51:50;95360.53;;;0.58;98.65
76374;BME280;65197;50.164;8.012;2022-12-07T12:54:25;95376.31;;;0.66;98.36
76374;BME280;65197;50.164;8.012;2022-12-07T12:59:33;95371.34;;;0.60;98.07
76374;BME280;65197;50.164;8.012;2022-12-07T13:13:00;95346.00;;;0.81;98.65
76374;BME280;65197;50.164;8.012;2022-12-07T13:15:36;95358.50;;;0.86;98.45
76374;BME280;65197;50.164;8.012;2022-12-07T13:18:04;95349.41;;;0.77;97.10
76374;BME280;65197;50.164;8.012;2022-12-07T13:23:54;95344.69;;;0.53;97.53
76374;BME280;65197;50.164;8.012;2022-12-07T13:29:11;95362.81;;;0.76;98.03
76374;BME280;65197;50.164;8.012;2022-12-07T13:31:57;95361.09;;;0.80;98.19
76374;BME280;65197;50.164;8.012;2022-12-07T13:36:56;95347.63;;;0.85;98.05
76374;BME280;65197;50.164;8.012;2022-12-07T13:39:24;95345.84;;;0.93;98.35
76374;BME280;65197;50.164;8.012;2022-12-07T13:41:59;95345.84;;;0.93;98.38
76374;BME280;65197;50.164;8.012;2022-12-07T13:44:27;95351.53;;;1.05;97.84
76374;BME280;65197;50.164;8.012;2022-12-07T13:49:28;95355.75;;;1.02;97.87
76374;BME280;65197;50.164;8.012;2022-12-07T13:51:55;95356.59;;;1.03;97.69
76374;BME280;65197;50.164;8.012;2022-12-07T13:54:30;95337.50;;;0.91;97.38
76374;BME280;65197;50.164;8.012;2022-12-07T13:56:56;95343.47;;;0.84;97.69
76374;BME280;65197;50.164;8.012;2022-12-07T13:59:24;95329.50;;;0.65;97.43
76374;BME280;65197;50.164;8.012;2022-12-07T14:01:51;95353.00;;;0.58;97.23
76374;BME280;65197;50.164;8.012;2022-12-07T14:04:33;95361.44;;;0.52;97.41
76374;BME280;65197;50.164;8.012;2022-12-07T14:07:16;95344.16;;;0.29;97.20
76374;BME280;65197;50.164;8.012;2022-12-07T14:09:56;95346.75;;;0.20;97.15
76374;BME280;65197;50.164;8.012;2022-12-07T14:12:23;95356.81;;;0.14;97.85
76374;BME280;65197;50.164;8.012;2022-12-07T14:14:49;95363.63;;;0.06;98.20
76374;BME280;65197;50.164;8.012;2022-12-07T14:17:19;95353.75;;;-0.11;98.36
76374;BME280;65197;50.164;8.012;2022-12-07T14:19:54;95332.94;;;-0.19;99.34
76374;BME280;65197;50.164;8.012;2022-12-07T14:22:30;95342.09;;;-0.14;99.04
76374;BME280;65197;50.164;8.012;2022-12-07T14:25:14;95342.09;;;-0.15;99.59
76374;BME280;65197;50.164;8.012;2022-12-07T14:30:21;95343.78;;;-0.16;99.53
76374;BME280;65197;50.164;8.012;2022-12-07T14:32:50;95326.34;;;-0.28;98.97
76374;BME280;65197;50.164;8.012;2022-12-07T14:35:18;95347.16;;;-0.20;99.20
76374;BME280;65197;50.164;8.012;2022-12-07T14:37:46;95339.69;;;-0.26;99.51
76374;BME280;65197;50.164;8.012;2022-12-07T14:40:14;95353.06;;;-0.26;99.80
76374;BME280;65197;50.164;8.012;2022-12-07T14:42:40;95347.31;;;-0.38;99.35
76374;BME280;65197;50.164;8.012;2022-12-07T14:45:13;95342.31;;;-0.38;99.66